Autaugaville, Alabama
Current Conditions -  °F | °C
As of 2:55 AM on Wednesday 26 Nov 2014 (Local Time) from K1A9 Reporting Station
Clear Clear  
Wind Chill: 41°   Ceiling: Unl
Heat Index: 43°   Visibility: 10mi
Dew Point: 31°   Wind: 5mph
Humidity: 62%   Direction: 280°W
Pressure: 30.1"   Gusts: NA
Location:  32.43°N, 86.65°W
Report Text: K1A9 260855Z AUTO 28004KT 10SM CLR 06/00 A3010 RMK AO2 T00631005
Loading
Personal Weather Stations






























Interactive Weather Map New forecast layout! Learn more

10-Day Weather Forecast

Advertisements
Track Severe Weather on mobile